TimeCDT,TemperatureF,Dew PointF,Humidity,Sea Level PressureIn,VisibilityMPH,Wind Direction,Wind SpeedMPH,Gust SpeedMPH,PrecipitationIn,Events,Conditions,WindDirDegrees,DateUTC
12:51 AM,73.0,60.1,64,30.04,10.0,SSW,5.8,-,N/A,,Clear,210,2013-08-29 05:51:00
1:51 AM,73.0,59.0,61,30.04,10.0,Calm,Calm,-,N/A,,Clear,0,2013-08-29 06:51:00
2:51 AM,70.0,59.0,68,30.04,10.0,SSW,3.5,-,N/A,,Clear,200,2013-08-29 07:51:00
3:51 AM,69.1,59.0,70,30.04,10.0,SSW,3.5,-,N/A,,Clear,200,2013-08-29 08:51:00
4:51 AM,69.1,61.0,75,30.04,10.0,Calm,Calm,-,N/A,,Clear,0,2013-08-29 09:51:00
5:51 AM,68.0,61.0,78,30.05,10.0,Calm,Calm,-,N/A,,Clear,0,2013-08-29 10:51:00
6:51 AM,68.0,62.1,81,30.06,10.0,South,3.5,-,N/A,,Clear,170,2013-08-29 11:51:00
7:51 AM,70.0,63.0,78,30.07,10.0,South,5.8,-,N/A,,Clear,180,2013-08-29 12:51:00
8:51 AM,75.0,66.0,73,30.09,10.0,South,5.8,-,N/A,,Clear,180,2013-08-29 13:51:00
9:51 AM,81.0,66.9,62,30.09,10.0,South,8.1,-,N/A,,Clear,180,2013-08-29 14:51:00
10:51 AM,84.9,66.0,53,30.09,10.0,South,11.5,-,N/A,,Clear,180,2013-08-29 15:51:00
11:51 AM,88.0,64.0,45,30.08,10.0,SSW,10.4,17.3,N/A,,Clear,200,2013-08-29 16:51:00
12:51 PM,91.0,63.0,39,30.06,10.0,South,11.5,-,N/A,,Clear,190,2013-08-29 17:51:00
1:51 PM,91.9,62.1,37,30.03,10.0,Variable,3.5,-,N/A,,Clear,0,2013-08-29 18:51:00
2:51 PM,93.9,61.0,33,30.01,10.0,Variable,6.9,-,N/A,,Partly Cloudy,0,2013-08-29 19:51:00
3:51 PM,95.0,59.0,30,29.98,10.0,SSW,4.6,-,N/A,,Scattered Clouds,210,2013-08-29 20:51:00
4:51 PM,95.0,57.0,28,29.96,10.0,SSE,10.4,-,N/A,,Scattered Clouds,160,2013-08-29 21:51:00
5:51 PM,96.1,55.9,26,29.95,10.0,Variable,5.8,-,N/A,,Clear,0,2013-08-29 22:51:00
6:51 PM,93.9,55.9,28,29.95,10.0,South,4.6,-,N/A,,Clear,190,2013-08-29 23:51:00
7:51 PM,91.9,57.0,31,29.96,10.0,South,3.5,-,N/A,,Clear,170,2013-08-30 00:51:00
8:51 PM,88.0,57.0,35,29.98,10.0,ESE,4.6,-,N/A,,Scattered Clouds,120,2013-08-30 01:51:00
9:51 PM,82.9,57.0,41,29.99,10.0,ESE,5.8,-,N/A,,Clear,110,2013-08-30 02:51:00
10:51 PM,81.0,57.9,45,29.99,10.0,South,5.8,-,N/A,,Clear,180,2013-08-30 03:51:00
11:51 PM,78.1,57.9,50,29.99,10.0,South,6.9,-,N/A,,Clear,190,2013-08-30 04:51:00